createdAt,value
2017-10-26T00:00:22.136Z,0
2017-10-26T00:01:22.652Z,0
2017-10-26T00:02:21.840Z,0
2017-10-26T00:03:21.719Z,0
2017-10-26T00:04:21.512Z,0
2017-10-26T00:05:21.625Z,0
2017-10-26T00:06:21.376Z,0
2017-10-26T00:07:21.582Z,0
2017-10-26T00:08:22.033Z,0
2017-10-26T00:09:21.830Z,0
2017-10-26T00:10:22.063Z,0
2017-10-26T00:11:22.157Z,0
2017-10-26T00:12:21.896Z,0
2017-10-26T00:13:22.258Z,0
2017-10-26T00:14:20.933Z,0
2017-10-26T00:15:22.202Z,0
2017-10-26T00:16:22.398Z,0
2017-10-26T00:17:24.511Z,0
2017-10-26T00:18:21.695Z,0
2017-10-26T00:19:21.447Z,0
2017-10-26T00:20:21.770Z,0
2017-10-26T00:21:21.356Z,0
2017-10-26T00:22:21.757Z,0
2017-10-26T00:23:21.113Z,0
2017-10-26T00:24:22.298Z,0
2017-10-26T00:25:23.630Z,0
2017-10-26T00:26:21.771Z,0
2017-10-26T00:27:23.018Z,0
2017-10-26T00:28:21.936Z,0
2017-10-26T00:29:21.776Z,0
2017-10-26T00:30:21.835Z,0
2017-10-26T00:31:21.642Z,0
2017-10-26T00:32:23.531Z,0
2017-10-26T00:33:21.636Z,0
2017-10-26T00:34:21.452Z,0
2017-10-26T00:35:21.218Z,0
2017-10-26T00:36:21.219Z,0
2017-10-26T00:37:21.281Z,0
2017-10-26T00:38:22.053Z,0
2017-10-26T00:39:21.734Z,0
2017-10-26T00:40:21.597Z,0
2017-10-26T00:41:21.469Z,0
2017-10-26T00:42:21.161Z,0
2017-10-26T00:43:21.637Z,0
2017-10-26T00:44:22.396Z,0
2017-10-26T00:45:21.297Z,0
2017-10-26T00:46:21.460Z,0
2017-10-26T00:47:21.202Z,0
2017-10-26T00:48:22.256Z,0
2017-10-26T00:49:21.661Z,0
2017-10-26T00:50:21.744Z,0
2017-10-26T00:51:21.733Z,0
2017-10-26T00:52:23.245Z,0
2017-10-26T00:53:23.324Z,0
2017-10-26T00:54:21.021Z,0
2017-10-26T00:55:22.184Z,0
2017-10-26T00:56:21.586Z,0
2017-10-26T00:57:22.358Z,0
2017-10-26T00:58:21.719Z,0
2017-10-26T00:59:22.065Z,0
2017-10-26T01:00:22.421Z,0
2017-10-26T01:01:21.423Z,0
2017-10-26T01:02:21.117Z,0
2017-10-26T01:03:21.875Z,0
2017-10-26T01:04:22.246Z,0
2017-10-26T01:05:21.404Z,0
2017-10-26T01:06:21.130Z,0
2017-10-26T01:07:20.952Z,0
2017-10-26T01:08:22.175Z,0
2017-10-26T01:09:21.282Z,0
2017-10-26T01:10:21.353Z,0
2017-10-26T01:11:21.553Z,0
2017-10-26T01:12:21.688Z,0
2017-10-26T01:13:21.939Z,0
2017-10-26T01:14:22.269Z,0
2017-10-26T01:15:22.633Z,0
2017-10-26T01:16:22.142Z,0
2017-10-26T01:17:21.337Z,0
2017-10-26T01:18:22.418Z,0
2017-10-26T01:19:21.251Z,0
2017-10-26T01:20:20.996Z,0
2017-10-26T01:21:22.565Z,0
2017-10-26T01:22:21.954Z,0
2017-10-26T01:23:22.146Z,0
2017-10-26T01:24:21.533Z,0
2017-10-26T01:25:21.784Z,0
2017-10-26T01:26:22.030Z,0
2017-10-26T01:27:21.676Z,0
2017-10-26T01:28:21.124Z,0
2017-10-26T01:29:20.936Z,0
2017-10-26T01:30:21.953Z,0
2017-10-26T01:31:22.022Z,0
2017-10-26T01:32:20.903Z,0
2017-10-26T01:33:21.607Z,0
2017-10-26T01:34:21.354Z,0
2017-10-26T01:35:21.430Z,0
2017-10-26T01:36:21.206Z,0
2017-10-26T01:37:21.303Z,0
2017-10-26T01:38:21.560Z,0
2017-10-26T01:39:21.301Z,0
2017-10-26T01:40:21.715Z,0
2017-10-26T01:41:23.963Z,0
2017-10-26T01:42:22.433Z,0
2017-10-26T01:43:21.490Z,0
2017-10-26T01:44:21.286Z,0
2017-10-26T01:45:21.749Z,0
2017-10-26T01:46:21.595Z,0
2017-10-26T01:47:21.877Z,0
2017-10-26T01:48:22.345Z,0
2017-10-26T01:49:22.096Z,0
2017-10-26T01:50:21.818Z,0
2017-10-26T01:51:21.551Z,0
2017-10-26T01:52:21.336Z,0
2017-10-26T01:53:21.600Z,0
2017-10-26T01:54:21.684Z,0
2017-10-26T01:55:21.579Z,0
2017-10-26T01:56:21.349Z,0
2017-10-26T01:57:21.641Z,0
2017-10-26T01:58:21.811Z,0
2017-10-26T01:59:21.317Z,0
2017-10-26T02:00:21.531Z,0
2017-10-26T02:01:21.575Z,0
2017-10-26T02:02:21.588Z,0
2017-10-26T02:03:21.844Z,0
2017-10-26T02:04:22.069Z,0
2017-10-26T02:05:22.576Z,0
2017-10-26T02:06:22.198Z,0
2017-10-26T02:07:22.020Z,0
2017-10-26T02:08:22.196Z,0
2017-10-26T02:09:21.519Z,0
2017-10-26T02:10:21.677Z,0
2017-10-26T02:11:21.799Z,0
2017-10-26T02:12:21.941Z,0
2017-10-26T02:13:21.973Z,0
2017-10-26T02:14:22.332Z,0
2017-10-26T02:15:22.531Z,0
2017-10-26T02:16:21.252Z,0
2017-10-26T02:17:21.580Z,0
2017-10-26T02:18:21.567Z,0
2017-10-26T02:19:21.964Z,0
2017-10-26T02:20:21.264Z,0
2017-10-26T02:21:21.224Z,0
2017-10-26T02:22:22.012Z,0
2017-10-26T02:23:22.281Z,0
2017-10-26T02:24:23.422Z,0
2017-10-26T02:25:21.100Z,0
2017-10-26T02:26:21.767Z,0
2017-10-26T02:27:22.039Z,0
2017-10-26T02:28:21.901Z,0
2017-10-26T02:29:22.155Z,0
2017-10-26T02:30:20.831Z,0
2017-10-26T02:31:21.616Z,0
2017-10-26T02:32:21.783Z,0
2017-10-26T02:33:22.337Z,0
2017-10-26T02:34:21.320Z,0
2017-10-26T02:35:21.129Z,0
2017-10-26T02:36:21.334Z,0
2017-10-26T02:37:22.695Z,0
2017-10-26T02:38:21.672Z,0
2017-10-26T02:39:21.951Z,0
2017-10-26T02:40:22.163Z,0
2017-10-26T02:41:21.402Z,0
2017-10-26T02:42:21.470Z,0
2017-10-26T02:43:21.589Z,0
2017-10-26T02:44:21.468Z,0
2017-10-26T02:45:21.661Z,0
2017-10-26T02:46:21.702Z,0
2017-10-26T02:47:22.050Z,0
2017-10-26T02:48:21.852Z,0
2017-10-26T02:49:22.024Z,0
2017-10-26T02:50:21.143Z,0
2017-10-26T02:51:21.400Z,0
2017-10-26T02:52:21.558Z,0
2017-10-26T02:53:21.143Z,0
2017-10-26T02:54:23.578Z,0
2017-10-26T02:55:22.421Z,0
2017-10-26T02:56:22.613Z,0
2017-10-26T02:57:21.302Z,0
2017-10-26T02:58:21.008Z,0
2017-10-26T02:59:22.149Z,0
2017-10-26T03:00:21.297Z,0
2017-10-26T03:01:21.699Z,0
2017-10-26T03:02:21.936Z,0
2017-10-26T03:03:21.723Z,0
2017-10-26T03:04:21.597Z,0
2017-10-26T03:05:21.715Z,0
2017-10-26T03:06:23.229Z,0
2017-10-26T03:07:21.601Z,0
2017-10-26T03:08:21.848Z,0
2017-10-26T03:09:21.702Z,0
2017-10-26T03:10:22.461Z,0
2017-10-26T03:11:21.690Z,0
2017-10-26T03:12:21.992Z,0
2017-10-26T03:13:21.640Z,0
2017-10-26T03:14:21.392Z,0
2017-10-26T03:15:21.818Z,0
2017-10-26T03:16:21.534Z,0
2017-10-26T03:17:22.004Z,0
2017-10-26T03:18:21.446Z,0
2017-10-26T03:19:21.236Z,0
2017-10-26T03:20:21.633Z,0
2017-10-26T03:21:21.381Z,0
2017-10-26T03:22:21.571Z,0
2017-10-26T03:23:21.885Z,0
2017-10-26T03:24:22.218Z,0
2017-10-26T03:25:21.058Z,0
2017-10-26T03:26:21.773Z,0
2017-10-26T03:27:21.612Z,0
2017-10-26T03:28:21.834Z,0
2017-10-26T03:29:21.986Z,0
2017-10-26T03:30:21.119Z,0
2017-10-26T03:31:20.890Z,0
2017-10-26T03:32:21.748Z,0
2017-10-26T03:33:21.748Z,0
2017-10-26T03:34:22.002Z,0
2017-10-26T03:35:23.938Z,0
2017-10-26T03:36:21.952Z,0
2017-10-26T03:37:21.684Z,0
2017-10-26T03:38:21.391Z,0
2017-10-26T03:39:21.184Z,0
2017-10-26T03:40:22.218Z,0
2017-10-26T03:41:20.912Z,0
2017-10-26T03:42:21.607Z,0
2017-10-26T03:43:21.740Z,0
2017-10-26T03:44:22.061Z,0
2017-10-26T03:45:21.287Z,0
2017-10-26T03:46:21.419Z,0
2017-10-26T03:47:21.336Z,0
2017-10-26T03:48:21.619Z,0
2017-10-26T03:49:21.943Z,0
2017-10-26T03:50:22.324Z,0
2017-10-26T03:51:21.966Z,0
2017-10-26T03:52:21.014Z,0
2017-10-26T03:53:21.670Z,0
2017-10-26T03:54:21.736Z,0
2017-10-26T03:55:21.867Z,0
2017-10-26T03:56:22.018Z,0
2017-10-26T03:57:21.719Z,0
2017-10-26T03:58:21.825Z,0
2017-10-26T03:59:20.786Z,0
2017-10-26T04:00:21.939Z,0
2017-10-26T04:01:21.821Z,0
2017-10-26T04:02:22.064Z,0
2017-10-26T04:03:20.807Z,0
2017-10-26T04:04:37.560Z,0
2017-10-26T04:05:37.344Z,0
2017-10-26T04:06:39.512Z,0
2017-10-26T04:07:38.609Z,0
2017-10-26T04:08:38.233Z,0
2017-10-26T04:09:39.187Z,0
2017-10-26T04:10:38.298Z,0
2017-10-26T04:11:39.060Z,0
2017-10-26T04:12:38.206Z,0
2017-10-26T04:13:38.022Z,0
2017-10-26T04:14:37.854Z,0
2017-10-26T04:15:37.597Z,0
2017-10-26T04:16:38.181Z,0
2017-10-26T04:17:38.303Z,0
2017-10-26T04:18:38.051Z,0
2017-10-26T04:19:38.314Z,0
2017-10-26T04:20:38.117Z,0
2017-10-26T04:21:38.015Z,0
2017-10-26T04:22:38.176Z,0
2017-10-26T04:23:38.384Z,0
2017-10-26T04:24:38.244Z,0
2017-10-26T04:25:38.360Z,0
2017-10-26T04:26:38.104Z,0
2017-10-26T04:27:38.556Z,0
2017-10-26T04:28:37.587Z,0
2017-10-26T04:29:37.285Z,0
2017-10-26T04:30:37.810Z,0
2017-10-26T04:31:37.955Z,0
2017-10-26T04:32:38.453Z,0
2017-10-26T04:33:38.757Z,0
2017-10-26T04:34:37.593Z,0
2017-10-26T04:35:38.359Z,0
2017-10-26T04:36:38.468Z,0
2017-10-26T04:37:38.648Z,0
2017-10-26T04:38:37.923Z,0
2017-10-26T04:39:38.093Z,0
2017-10-26T04:40:37.757Z,0
2017-10-26T04:41:37.393Z,0
2017-10-26T04:42:38.555Z,0
2017-10-26T04:43:38.256Z,0
2017-10-26T04:44:38.384Z,0
2017-10-26T04:45:38.634Z,0
2017-10-26T04:46:37.666Z,0
2017-10-26T04:47:37.817Z,0
2017-10-26T04:48:38.013Z,0
2017-10-26T04:49:42.565Z,0
2017-10-26T04:50:38.171Z,0
2017-10-26T04:51:37.864Z,0
2017-10-26T04:52:38.153Z,0
2017-10-26T04:53:38.638Z,0
2017-10-26T04:54:37.956Z,0
2017-10-26T04:55:38.059Z,0
2017-10-26T04:56:38.729Z,0
2017-10-26T04:57:37.796Z,0
2017-10-26T04:58:37.681Z,0
2017-10-26T04:59:38.137Z,0
2017-10-26T05:00:38.044Z,0
2017-10-26T05:01:38.084Z,0
2017-10-26T05:02:38.327Z,0
2017-10-26T05:03:38.126Z,0
2017-10-26T05:04:38.793Z,0
2017-10-26T05:05:37.783Z,0
2017-10-26T05:06:38.145Z,0
2017-10-26T05:07:38.283Z,0
2017-10-26T05:08:38.310Z,0
2017-10-26T05:09:38.742Z,0
2017-10-26T05:10:37.798Z,0
2017-10-26T05:11:37.521Z,0
2017-10-26T05:12:38.591Z,0
2017-10-26T05:13:38.025Z,0
2017-10-26T05:14:38.222Z,0
2017-10-26T05:15:38.266Z,0
2017-10-26T05:16:37.982Z,0
2017-10-26T05:17:37.835Z,0
2017-10-26T05:18:37.594Z,0
2017-10-26T05:19:38.395Z,0
2017-10-26T05:20:39.784Z,0
2017-10-26T05:21:37.829Z,0
2017-10-26T05:22:37.587Z,0
2017-10-26T05:23:37.393Z,0
2017-10-26T05:24:39.015Z,0
2017-10-26T05:25:38.824Z,0
2017-10-26T05:26:37.939Z,0
2017-10-26T05:27:38.823Z,0
2017-10-26T05:28:37.493Z,0
2017-10-26T05:29:38.268Z,0
2017-10-26T05:30:38.426Z,0
2017-10-26T05:31:38.688Z,0
2017-10-26T05:32:38.113Z,0
2017-10-26T05:33:38.091Z,0
2017-10-26T05:34:38.432Z,0
2017-10-26T05:35:37.575Z,0
2017-10-26T05:36:37.812Z,0
2017-10-26T05:37:37.531Z,0
2017-10-26T05:38:37.516Z,0
2017-10-26T05:39:38.621Z,0
2017-10-26T05:40:37.391Z,0
2017-10-26T05:41:37.606Z,0
2017-10-26T05:42:38.293Z,0
2017-10-26T05:43:38.338Z,0
2017-10-26T05:44:38.480Z,0
2017-10-26T05:45:37.825Z,0
2017-10-26T05:46:43.288Z,0
2017-10-26T05:47:38.384Z,0
2017-10-26T05:48:38.118Z,0
2017-10-26T05:49:37.893Z,0
2017-10-26T05:50:38.145Z,0
2017-10-26T05:51:38.009Z,0
2017-10-26T05:52:37.587Z,0
2017-10-26T05:53:38.452Z,0
2017-10-26T05:54:38.517Z,0
2017-10-26T05:55:38.412Z,0
2017-10-26T05:56:39.363Z,0
2017-10-26T05:57:38.164Z,0
2017-10-26T05:58:38.472Z,0
2017-10-26T05:59:37.907Z,0
2017-10-26T06:00:37.658Z,0
2017-10-26T06:01:37.475Z,0
2017-10-26T06:02:37.902Z,0
2017-10-26T06:03:38.661Z,0
2017-10-26T06:04:37.650Z,0
2017-10-26T06:05:39.862Z,0
2017-10-26T06:06:37.707Z,0
2017-10-26T06:07:38.552Z,1
2017-10-26T06:08:37.330Z,1
2017-10-26T06:09:38.991Z,1
2017-10-26T06:10:37.784Z,1
2017-10-26T06:11:37.627Z,1
2017-10-26T06:12:37.721Z,1
2017-10-26T06:13:38.563Z,1
2017-10-26T06:14:37.487Z,1
2017-10-26T06:15:37.649Z,2
2017-10-26T06:16:38.495Z,2
2017-10-26T06:17:37.844Z,2
2017-10-26T06:18:38.602Z,2
2017-10-26T06:19:37.651Z,3
2017-10-26T06:20:38.265Z,3
2017-10-26T06:21:38.396Z,3
2017-10-26T06:22:38.819Z,3
2017-10-26T06:23:38.049Z,4
2017-10-26T06:24:38.606Z,4
2017-10-26T06:25:37.563Z,4
2017-10-26T06:26:38.373Z,4
2017-10-26T06:27:37.635Z,4
2017-10-26T06:28:38.070Z,5
2017-10-26T06:29:37.993Z,5
2017-10-26T06:30:38.470Z,6
2017-10-26T06:31:39.012Z,6
2017-10-26T06:32:38.162Z,6
2017-10-26T06:33:45.116Z,7
2017-10-26T06:34:37.736Z,7
2017-10-26T06:35:37.564Z,7
2017-10-26T06:36:37.335Z,8
2017-10-26T06:37:39.241Z,8
2017-10-26T06:38:38.613Z,8
2017-10-26T06:39:37.566Z,8
2017-10-26T06:40:37.393Z,8
2017-10-26T06:41:38.295Z,9
2017-10-26T06:42:38.737Z,10
2017-10-26T06:43:40.377Z,10
2017-10-26T06:44:38.458Z,11
2017-10-26T06:45:37.604Z,11
2017-10-26T06:46:37.855Z,12
2017-10-26T06:47:37.564Z,13
2017-10-26T06:48:38.954Z,14
2017-10-26T06:49:38.772Z,15
2017-10-26T06:50:37.819Z,16
2017-10-26T06:51:37.801Z,17
2017-10-26T06:52:38.014Z,18
2017-10-26T06:53:38.890Z,19
2017-10-26T06:54:39.092Z,19
2017-10-26T06:55:38.131Z,20
2017-10-26T06:56:38.095Z,18
2017-10-26T06:57:38.205Z,18
2017-10-26T06:58:38.994Z,17
2017-10-26T06:59:39.861Z,15
2017-10-26T07:00:38.048Z,14
2017-10-26T07:01:38.490Z,14
2017-10-26T07:02:38.557Z,13
2017-10-26T07:03:37.736Z,12
2017-10-26T07:04:41.956Z,10
2017-10-26T07:05:38.103Z,11
2017-10-26T07:06:38.471Z,14
2017-10-26T07:07:37.849Z,15
2017-10-26T07:08:39.667Z,15
2017-10-26T07:09:38.106Z,17
2017-10-26T07:10:39.157Z,19
2017-10-26T07:11:39.572Z,18
2017-10-26T07:12:37.927Z,20
2017-10-26T07:13:38.262Z,22
2017-10-26T07:14:38.679Z,23
2017-10-26T07:15:38.221Z,21
2017-10-26T07:16:38.493Z,22
2017-10-26T07:17:37.564Z,23
2017-10-26T07:18:38.004Z,23
2017-10-26T07:19:38.800Z,22
2017-10-26T07:20:37.880Z,20
2017-10-26T07:21:37.858Z,20
2017-10-26T07:22:38.113Z,20
2017-10-26T07:23:37.774Z,19
2017-10-26T07:24:38.254Z,18
2017-10-26T07:25:38.969Z,17
2017-10-26T07:26:38.217Z,22
2017-10-26T07:27:38.298Z,29
2017-10-26T07:28:40.398Z,31
2017-10-26T07:29:37.755Z,32
2017-10-26T07:30:37.651Z,34
2017-10-26T07:31:38.409Z,26
2017-10-26T07:32:38.401Z,18
2017-10-26T07:33:38.074Z,17
2017-10-26T07:34:38.956Z,18
2017-10-26T07:35:38.253Z,15
2017-10-26T07:36:39.451Z,17
2017-10-26T07:37:37.401Z,20
2017-10-26T07:38:37.401Z,21
2017-10-26T07:39:37.597Z,23
2017-10-26T07:40:39.521Z,23
2017-10-26T07:41:37.762Z,25
2017-10-26T07:42:38.305Z,28
2017-10-26T07:43:38.540Z,21
2017-10-26T07:44:37.939Z,25
2017-10-26T07:45:38.260Z,26
2017-10-26T07:46:38.694Z,29
2017-10-26T07:47:38.919Z,24
2017-10-26T07:48:38.608Z,31
2017-10-26T07:49:37.623Z,39
2017-10-26T07:50:37.484Z,37
2017-10-26T07:51:41.059Z,37
2017-10-26T07:52:38.355Z,43
2017-10-26T07:53:37.669Z,46
2017-10-26T07:54:37.942Z,52
2017-10-26T07:55:37.947Z,54
2017-10-26T07:56:38.320Z,52
2017-10-26T07:57:37.694Z,50
2017-10-26T07:58:38.057Z,50
2017-10-26T07:59:38.303Z,51
2017-10-26T08:00:40.027Z,56
2017-10-26T08:01:38.925Z,56
2017-10-26T08:02:38.231Z,57
2017-10-26T08:03:38.427Z,58
2017-10-26T08:04:38.515Z,59
2017-10-26T08:05:37.520Z,62
2017-10-26T08:06:37.477Z,62
2017-10-26T08:07:38.504Z,64
2017-10-26T08:08:38.059Z,64
2017-10-26T08:09:38.807Z,66
2017-10-26T08:10:37.680Z,69
2017-10-26T08:11:38.106Z,72
2017-10-26T08:12:38.233Z,69
2017-10-26T08:13:37.949Z,67
2017-10-26T08:14:39.322Z,67
2017-10-26T08:15:38.318Z,63
2017-10-26T08:16:37.299Z,59
2017-10-26T08:17:38.295Z,60
2017-10-26T08:18:37.514Z,59
2017-10-26T08:19:37.400Z,58
2017-10-26T08:20:37.629Z,56
2017-10-26T08:21:38.297Z,56
2017-10-26T08:22:39.924Z,54
2017-10-26T08:23:37.981Z,57
2017-10-26T08:24:37.547Z,51
2017-10-26T08:25:37.892Z,48
2017-10-26T08:26:47.894Z,49
2017-10-26T08:27:47.846Z,54
2017-10-26T08:28:48.197Z,55
2017-10-26T08:29:47.676Z,50
2017-10-26T08:30:49.229Z,48
2017-10-26T08:31:48.459Z,62
2017-10-26T08:32:48.925Z,55
2017-10-26T08:33:47.855Z,48
2017-10-26T08:34:48.106Z,51
2017-10-26T08:35:48.426Z,63
2017-10-26T08:36:48.542Z,56
2017-10-26T08:37:47.637Z,53
2017-10-26T08:38:47.945Z,55
2017-10-26T08:39:48.647Z,64
2017-10-26T08:40:47.996Z,72
2017-10-26T08:41:48.670Z,64
2017-10-26T08:42:47.544Z,65
2017-10-26T08:43:48.381Z,71
2017-10-26T08:44:48.545Z,71
2017-10-26T08:45:48.739Z,70
2017-10-26T08:46:50.159Z,80
2017-10-26T08:47:52.788Z,76
2017-10-26T08:48:49.539Z,75
2017-10-26T08:49:49.860Z,76
2017-10-26T08:50:49.416Z,77
2017-10-26T08:51:48.902Z,69
2017-10-26T08:52:49.447Z,68
2017-10-26T08:53:48.599Z,62
2017-10-26T08:54:48.264Z,56
2017-10-26T08:55:48.015Z,55
2017-10-26T08:56:50.953Z,61
2017-10-26T08:57:48.346Z,65
2017-10-26T08:58:49.912Z,67
2017-10-26T08:59:49.163Z,77
2017-10-26T09:00:48.542Z,69
2017-10-26T09:01:47.988Z,61
2017-10-26T09:02:48.981Z,55
2017-10-26T09:03:49.653Z,64
2017-10-26T09:04:47.763Z,59
2017-10-26T09:05:48.192Z,64
2017-10-26T09:06:48.322Z,75
2017-10-26T09:07:48.303Z,73
2017-10-26T09:08:49.035Z,59
2017-10-26T09:09:51.216Z,49
2017-10-26T09:10:48.572Z,51
2017-10-26T09:11:47.735Z,50
2017-10-26T09:12:48.604Z,39
2017-10-26T09:13:49.753Z,39
2017-10-26T09:14:48.692Z,52
2017-10-26T09:15:48.158Z,48
2017-10-26T09:16:48.655Z,47
2017-10-26T09:17:47.699Z,45
2017-10-26T09:18:47.677Z,41
2017-10-26T09:19:48.885Z,37
2017-10-26T09:20:48.152Z,45
2017-10-26T09:21:49.167Z,39
2017-10-26T09:22:48.113Z,35
2017-10-26T09:23:49.364Z,40
2017-10-26T09:24:52.847Z,46
2017-10-26T09:25:48.646Z,44
2017-10-26T09:26:48.611Z,44
2017-10-26T09:27:48.109Z,41
2017-10-26T09:28:49.140Z,37
2017-10-26T09:29:49.235Z,36
2017-10-26T09:30:48.547Z,40
2017-10-26T09:31:48.080Z,45
2017-10-26T09:32:49.870Z,59
2017-10-26T09:33:47.824Z,55
2017-10-26T09:34:51.769Z,67
2017-10-26T09:35:47.649Z,64
2017-10-26T09:36:47.854Z,58
2017-10-26T09:37:48.776Z,67
2017-10-26T09:38:48.633Z,91
2017-10-26T09:39:47.559Z,86
2017-10-26T09:40:48.130Z,92
2017-10-26T09:41:47.598Z,93
2017-10-26T09:42:48.342Z,79
2017-10-26T09:43:47.727Z,83
2017-10-26T09:44:48.619Z,80
2017-10-26T09:45:48.120Z,72
2017-10-26T09:46:48.597Z,59
2017-10-26T09:47:48.013Z,65
2017-10-26T09:48:48.365Z,61
2017-10-26T09:49:48.744Z,52
2017-10-26T09:50:48.543Z,59
2017-10-26T09:51:47.642Z,53
2017-10-26T09:52:47.630Z,39
2017-10-26T09:53:48.088Z,37
2017-10-26T09:54:48.242Z,43
2017-10-26T09:55:48.453Z,48
2017-10-26T09:56:47.984Z,43
2017-10-26T09:57:49.217Z,45
2017-10-26T09:58:51.915Z,63
2017-10-26T09:59:48.131Z,58
2017-10-26T10:00:48.341Z,58
2017-10-26T10:01:48.288Z,62
2017-10-26T10:02:47.761Z,67
2017-10-26T10:03:47.958Z,71
2017-10-26T10:04:48.700Z,64
2017-10-26T10:05:48.996Z,72
2017-10-26T10:06:48.094Z,76
2017-10-26T10:07:48.901Z,79
2017-10-26T10:08:47.773Z,88
2017-10-26T10:09:49.552Z,77
2017-10-26T10:10:47.389Z,62
2017-10-26T10:11:47.986Z,47
2017-10-26T10:12:49.270Z,40
2017-10-26T10:13:48.195Z,33
2017-10-26T10:14:48.653Z,35
2017-10-26T10:15:48.008Z,39
2017-10-26T10:16:47.918Z,38
2017-10-26T10:17:48.755Z,40
2017-10-26T10:18:48.580Z,50
2017-10-26T10:19:48.034Z,65
2017-10-26T10:20:48.809Z,75
2017-10-26T10:21:48.303Z,85
2017-10-26T10:22:49.556Z,89
2017-10-26T10:23:48.017Z,92
2017-10-26T10:24:48.633Z,91
2017-10-26T10:25:48.575Z,74
2017-10-26T10:26:47.847Z,65
2017-10-26T10:27:49.508Z,78
2017-10-26T10:28:48.440Z,89
2017-10-26T10:29:49.964Z,93
2017-10-26T10:30:48.828Z,96
2017-10-26T10:31:49.208Z,103
2017-10-26T10:32:51.887Z,108
2017-10-26T10:33:48.399Z,97
2017-10-26T10:34:48.224Z,74
2017-10-26T10:35:49.261Z,64
2017-10-26T10:36:48.452Z,60
2017-10-26T10:37:49.135Z,53
2017-10-26T10:38:48.214Z,57
2017-10-26T10:39:48.614Z,86
2017-10-26T10:40:47.946Z,119
2017-10-26T10:41:48.632Z,146
2017-10-26T10:42:48.706Z,162
2017-10-26T10:43:48.077Z,151
2017-10-26T10:44:28.574Z,146
2017-10-26T10:45:30.049Z,128
2017-10-26T10:46:30.405Z,105
2017-10-26T10:47:31.810Z,114
2017-10-26T10:48:30.266Z,123
2017-10-26T10:49:30.456Z,133
2017-10-26T10:50:28.709Z,138
2017-10-26T10:51:29.623Z,141
2017-10-26T10:52:32.259Z,146
2017-10-26T10:53:29.447Z,151
2017-10-26T10:54:31.215Z,166
2017-10-26T10:55:30.786Z,173
2017-10-26T10:56:29.629Z,148
2017-10-26T10:57:29.316Z,129
2017-10-26T10:58:31.115Z,124
2017-10-26T10:59:29.388Z,113
2017-10-26T11:00:30.029Z,108
2017-10-26T11:01:29.660Z,110
2017-10-26T11:02:29.950Z,127
2017-10-26T11:03:28.994Z,131
2017-10-26T11:04:29.689Z,117
2017-10-26T11:05:30.068Z,134
2017-10-26T11:06:29.981Z,115
2017-10-26T11:07:29.531Z,94
2017-10-26T11:08:29.229Z,93
2017-10-26T11:09:29.949Z,96
2017-10-26T11:10:29.290Z,95
2017-10-26T11:11:30.174Z,104
2017-10-26T11:12:29.996Z,118
2017-10-26T11:13:29.306Z,104
2017-10-26T11:14:32.820Z,79
2017-10-26T11:15:29.108Z,60
2017-10-26T11:16:30.148Z,72
2017-10-26T11:17:29.875Z,63
2017-10-26T11:18:29.678Z,71
2017-10-26T11:19:29.632Z,75
2017-10-26T11:20:30.140Z,85
2017-10-26T11:21:29.386Z,80
2017-10-26T11:22:29.085Z,72
2017-10-26T11:23:30.053Z,66
2017-10-26T11:24:30.491Z,63
2017-10-26T11:25:29.421Z,74
2017-10-26T11:26:28.883Z,83
2017-10-26T11:27:29.729Z,73
2017-10-26T11:28:30.779Z,75
2017-10-26T11:29:30.153Z,85
2017-10-26T11:30:30.156Z,108
2017-10-26T11:31:30.419Z,137
2017-10-26T11:32:29.518Z,138
2017-10-26T11:33:29.563Z,161
2017-10-26T11:34:30.796Z,163
2017-10-26T11:35:28.925Z,185
2017-10-26T11:36:29.044Z,152
2017-10-26T11:37:29.358Z,162
2017-10-26T11:38:30.768Z,201
2017-10-26T11:39:31.424Z,160
2017-10-26T11:40:29.378Z,186
2017-10-26T11:41:30.248Z,208
2017-10-26T11:42:28.661Z,211
2017-10-26T11:43:29.132Z,220
2017-10-26T11:44:30.300Z,212
2017-10-26T11:45:29.406Z,224
2017-10-26T11:46:29.503Z,266
2017-10-26T11:47:29.066Z,267
2017-10-26T11:48:29.312Z,282
2017-10-26T11:49:36.123Z,263
2017-10-26T11:50:33.885Z,249
2017-10-26T11:51:28.940Z,251
2017-10-26T11:52:29.843Z,213
2017-10-26T11:53:28.945Z,193
2017-10-26T11:54:30.281Z,196
2017-10-26T11:55:28.640Z,227
2017-10-26T11:56:29.398Z,277
2017-10-26T11:57:29.227Z,246
2017-10-26T11:58:29.041Z,255
2017-10-26T11:59:29.855Z,238
2017-10-26T12:00:29.677Z,130
2017-10-26T12:01:31.012Z,164
2017-10-26T12:02:30.712Z,154
2017-10-26T12:03:29.958Z,222
2017-10-26T12:04:29.011Z,227
2017-10-26T12:05:29.741Z,132
2017-10-26T12:06:29.425Z,134
2017-10-26T12:07:28.990Z,253
2017-10-26T12:08:29.382Z,210
2017-10-26T12:09:29.869Z,156
2017-10-26T12:10:28.985Z,142
2017-10-26T12:11:29.957Z,147
2017-10-26T12:12:28.902Z,171
2017-10-26T12:13:29.549Z,205
2017-10-26T12:14:28.983Z,174
2017-10-26T12:15:29.626Z,158
2017-10-26T12:16:30.069Z,163
2017-10-26T12:17:29.833Z,198
2017-10-26T12:18:29.766Z,224
2017-10-26T12:19:31.096Z,181
2017-10-26T12:20:29.647Z,154
2017-10-26T12:21:28.822Z,121
2017-10-26T12:22:29.261Z,138
2017-10-26T12:23:30.177Z,214
2017-10-26T12:24:31.669Z,119
2017-10-26T12:25:28.803Z,110
2017-10-26T12:26:28.861Z,119
2017-10-26T12:27:29.930Z,134
2017-10-26T12:28:29.717Z,123
2017-10-26T12:29:32.633Z,104
2017-10-26T12:30:29.837Z,106
2017-10-26T12:31:29.354Z,111
2017-10-26T12:32:29.038Z,108
2017-10-26T12:33:28.586Z,99
2017-10-26T12:34:29.033Z,105
2017-10-26T12:35:29.008Z,113
2017-10-26T12:36:29.719Z,129
2017-10-26T12:37:31.503Z,127
2017-10-26T12:38:29.059Z,137
2017-10-26T12:39:30.411Z,126
2017-10-26T12:40:29.050Z,114
2017-10-26T12:41:29.048Z,164
2017-10-26T12:42:29.866Z,118
2017-10-26T12:43:29.527Z,193
2017-10-26T12:44:29.762Z,213
2017-10-26T12:45:29.378Z,249
2017-10-26T12:46:28.377Z,262
2017-10-26T12:47:29.075Z,260
2017-10-26T12:48:29.932Z,299
2017-10-26T12:49:29.223Z,207
2017-10-26T12:50:29.584Z,243
2017-10-26T12:51:29.888Z,224
2017-10-26T12:52:29.578Z,252
2017-10-26T12:53:28.953Z,182
2017-10-26T12:54:29.071Z,177
2017-10-26T12:55:29.900Z,165
2017-10-26T12:56:29.425Z,189
2017-10-26T12:57:30.331Z,134
2017-10-26T12:58:28.907Z,117
2017-10-26T12:59:29.402Z,108
2017-10-26T13:00:30.000Z,92
2017-10-26T13:01:29.857Z,79
2017-10-26T13:02:31.720Z,68
2017-10-26T13:03:29.237Z,63
2017-10-26T13:04:29.200Z,65
2017-10-26T13:05:29.466Z,81
2017-10-26T13:06:30.881Z,72
2017-10-26T13:07:29.250Z,78
2017-10-26T13:08:29.687Z,77
2017-10-26T13:09:29.277Z,110
2017-10-26T13:10:29.848Z,140
2017-10-26T13:11:29.880Z,155
2017-10-26T13:12:29.372Z,129
2017-10-26T13:13:29.281Z,110
2017-10-26T13:14:28.436Z,110
2017-10-26T13:15:28.406Z,126
2017-10-26T13:16:30.255Z,148
2017-10-26T13:17:28.531Z,155
2017-10-26T13:18:28.528Z,149
2017-10-26T13:19:29.010Z,135
2017-10-26T13:20:29.091Z,124
2017-10-26T13:21:29.594Z,119
2017-10-26T13:22:30.755Z,119
2017-10-26T13:23:28.769Z,119
2017-10-26T13:24:28.825Z,120
2017-10-26T13:25:30.231Z,121
2017-10-26T13:26:29.549Z,124
2017-10-26T13:27:29.010Z,173
2017-10-26T13:28:29.471Z,137
2017-10-26T13:29:29.062Z,131
2017-10-26T13:30:29.311Z,126
2017-10-26T13:31:29.393Z,126
2017-10-26T13:32:29.397Z,129
2017-10-26T13:33:28.710Z,138
2017-10-26T13:34:28.957Z,182
2017-10-26T13:35:29.306Z,188
2017-10-26T13:36:29.044Z,159
2017-10-26T13:37:29.759Z,163
2017-10-26T13:38:29.087Z,163
2017-10-26T13:39:33.208Z,167
2017-10-26T13:40:29.576Z,167
2017-10-26T13:41:30.368Z,153
2017-10-26T13:42:28.825Z,163
2017-10-26T13:43:29.597Z,188
2017-10-26T13:44:29.239Z,110
2017-10-26T13:45:28.421Z,106
2017-10-26T13:46:28.518Z,96
2017-10-26T13:47:29.741Z,100
2017-10-26T13:48:29.598Z,102
2017-10-26T13:49:29.321Z,105
2017-10-26T13:50:28.329Z,103
2017-10-26T13:51:28.563Z,110
2017-10-26T13:52:28.955Z,96
2017-10-26T13:53:30.037Z,78
2017-10-26T13:54:29.602Z,74
2017-10-26T13:55:29.533Z,72
2017-10-26T13:56:29.044Z,75
2017-10-26T13:57:31.342Z,71
2017-10-26T13:58:29.628Z,66
2017-10-26T13:59:29.327Z,79
2017-10-26T14:00:29.003Z,101
2017-10-26T14:01:29.304Z,89
2017-10-26T14:02:28.732Z,82
2017-10-26T14:03:29.299Z,77
2017-10-26T14:04:29.739Z,79
2017-10-26T14:05:29.679Z,90
2017-10-26T14:06:28.927Z,92
2017-10-26T14:07:29.516Z,85
2017-10-26T14:08:29.492Z,90
2017-10-26T14:09:28.817Z,98
2017-10-26T14:10:29.538Z,95
2017-10-26T14:11:28.928Z,89
2017-10-26T14:12:29.414Z,87
2017-10-26T14:13:28.740Z,86
2017-10-26T14:14:28.978Z,83
2017-10-26T14:15:29.992Z,81
2017-10-26T14:16:29.683Z,80
2017-10-26T14:17:29.003Z,78
2017-10-26T14:18:29.186Z,77
2017-10-26T14:19:29.225Z,76
2017-10-26T14:20:28.522Z,75
2017-10-26T14:21:29.475Z,74
2017-10-26T14:22:28.760Z,72
2017-10-26T14:23:28.946Z,70
2017-10-26T14:24:29.596Z,67